Главная страница
METAR-TAF:

METAR-TAF

Аэропорты :

Vilhelmina, Швеция

широта: 64-34-44N, долгота: 016-50-00E, высота над уровнем моря: 347 м

Текущие метеонаблюдения

Эта сводка был подготовлена 18 минут назад, в 13:50 UTC
Штиль
Температура -11°C
Влажность 85%
Давление 976 hPa
Видимость 10 км и более

METAR: ESNV 081350Z AUTO 00000KT 9999 SCT002/// OVC037/// M11/M13 Q0976

Время: 15:08 (14:08 UTC)


TAF: отсутствует

Метеонаблюдения и прогнозы для более 4000 аэропортов (сводки METAR и TAF).

Имеющиеся станции представлены на карте желтыми и красными точками.

Чтобы увидеть название станции, наведите на нее мышь.

Затем щелкните, чтобы увидеть метеонаблюдения и метеопрогнозы.

Управление картой: чтобы увеличить масштаб, щелкните зеленые кнопки с черным крестиком; чтобы уменьшить масштаб, щелкните зеленую кнопку с тире; для просмотра соседних карт щелкайте зеленые стрелки.


METAR-TAF: